sensor_id;sensor_type;location;lat;lon;timestamp;P1;durP1;ratioP1;P2;durP2;ratioP2
70576;SDS011;58138;43.138;24.702;2022-12-24T00:01:32;22.55;;;11.32;;
70576;SDS011;58138;43.138;24.702;2022-12-24T00:03:58;35.42;;;17.35;;
70576;SDS011;58138;43.138;24.702;2022-12-24T00:06:23;29.40;;;14.60;;
70576;SDS011;58138;43.138;24.702;2022-12-24T00:08:49;14.20;;;7.53;;
70576;SDS011;58138;43.138;24.702;2022-12-24T00:11:15;17.98;;;11.20;;
70576;SDS011;58138;43.138;24.702;2022-12-24T00:13:41;14.88;;;7.68;;
70576;SDS011;58138;43.138;24.702;2022-12-24T00:16:06;10.82;;;6.10;;
70576;SDS011;58138;43.138;24.702;2022-12-24T00:18:32;6.93;;;4.55;;
70576;SDS011;58138;43.138;24.702;2022-12-24T00:20:57;21.63;;;12.27;;
70576;SDS011;58138;43.138;24.702;2022-12-24T00:23:23;25.10;;;13.82;;
70576;SDS011;58138;43.138;24.702;2022-12-24T00:25:48;21.35;;;12.55;;
70576;SDS011;58138;43.138;24.702;2022-12-24T00:28:14;22.95;;;14.80;;
70576;SDS011;58138;43.138;24.702;2022-12-24T00:30:40;23.90;;;14.55;;
70576;SDS011;58138;43.138;24.702;2022-12-24T00:33:06;24.60;;;16.73;;
70576;SDS011;58138;43.138;24.702;2022-12-24T00:35:35;27.75;;;17.52;;
70576;SDS011;58138;43.138;24.702;2022-12-24T00:38:01;27.25;;;16.63;;
70576;SDS011;58138;43.138;24.702;2022-12-24T00:40:27;25.98;;;16.05;;
70576;SDS011;58138;43.138;24.702;2022-12-24T00:42:53;26.60;;;16.00;;
70576;SDS011;58138;43.138;24.702;2022-12-24T00:45:19;24.13;;;14.30;;
70576;SDS011;58138;43.138;24.702;2022-12-24T00:47:44;27.85;;;15.77;;
70576;SDS011;58138;43.138;24.702;2022-12-24T00:50:10;27.98;;;13.90;;
70576;SDS011;58138;43.138;24.702;2022-12-24T00:52:35;13.77;;;6.45;;
70576;SDS011;58138;43.138;24.702;2022-12-24T00:55:01;20.48;;;12.55;;
70576;SDS011;58138;43.138;24.702;2022-12-24T00:57:27;23.00;;;12.57;;
70576;SDS011;58138;43.138;24.702;2022-12-24T00:59:52;20.08;;;11.38;;
70576;SDS011;58138;43.138;24.702;2022-12-24T01:02:18;20.30;;;12.05;;
70576;SDS011;58138;43.138;24.702;2022-12-24T01:04:43;21.33;;;12.63;;
70576;SDS011;58138;43.138;24.702;2022-12-24T01:07:27;15.60;;;7.82;;
70576;SDS011;58138;43.138;24.702;2022-12-24T01:09:53;17.25;;;8.10;;
70576;SDS011;58138;43.138;24.702;2022-12-24T01:12:18;25.27;;;13.20;;
70576;SDS011;58138;43.138;24.702;2022-12-24T01:14:44;21.27;;;13.05;;
70576;SDS011;58138;43.138;24.702;2022-12-24T01:17:09;9.73;;;5.45;;
70576;SDS011;58138;43.138;24.702;2022-12-24T01:19:35;21.73;;;13.48;;
70576;SDS011;58138;43.138;24.702;2022-12-24T01:22:00;16.42;;;9.82;;
70576;SDS011;58138;43.138;24.702;2022-12-24T01:24:26;17.55;;;10.57;;
70576;SDS011;58138;43.138;24.702;2022-12-24T01:26:52;14.05;;;8.45;;
70576;SDS011;58138;43.138;24.702;2022-12-24T01:29:17;22.25;;;12.75;;
70576;SDS011;58138;43.138;24.702;2022-12-24T01:31:43;17.27;;;8.63;;
70576;SDS011;58138;43.138;24.702;2022-12-24T01:34:08;22.25;;;12.20;;
70576;SDS011;58138;43.138;24.702;2022-12-24T01:36:34;12.27;;;7.43;;
70576;SDS011;58138;43.138;24.702;2022-12-24T01:39:00;13.70;;;6.35;;
70576;SDS011;58138;43.138;24.702;2022-12-24T01:41:26;20.30;;;12.35;;
70576;SDS011;58138;43.138;24.702;2022-12-24T01:46:44;20.35;;;10.95;;
70576;SDS011;58138;43.138;24.702;2022-12-24T01:49:10;15.73;;;7.20;;
70576;SDS011;58138;43.138;24.702;2022-12-24T01:51:39;22.48;;;12.70;;
70576;SDS011;58138;43.138;24.702;2022-12-24T01:54:10;17.58;;;10.63;;
70576;SDS011;58138;43.138;24.702;2022-12-24T01:56:58;20.13;;;11.40;;
70576;SDS011;58138;43.138;24.702;2022-12-24T01:59:26;17.27;;;9.70;;
70576;SDS011;58138;43.138;24.702;2022-12-24T02:01:52;16.10;;;8.95;;
70576;SDS011;58138;43.138;24.702;2022-12-24T02:04:23;18.27;;;10.82;;
70576;SDS011;58138;43.138;24.702;2022-12-24T02:06:55;22.58;;;12.57;;
70576;SDS011;58138;43.138;24.702;2022-12-24T02:09:21;20.83;;;13.90;;
70576;SDS011;58138;43.138;24.702;2022-12-24T02:11:47;20.52;;;12.20;;
70576;SDS011;58138;43.138;24.702;2022-12-24T02:14:12;23.00;;;14.30;;
70576;SDS011;58138;43.138;24.702;2022-12-24T02:27:58;14.95;;;10.18;;
70576;SDS011;58138;43.138;24.702;2022-12-24T02:30:37;14.02;;;7.88;;
70576;SDS011;58138;43.138;24.702;2022-12-24T02:33:19;17.60;;;8.77;;
70576;SDS011;58138;43.138;24.702;2022-12-24T02:38:40;13.10;;;5.72;;
70576;SDS011;58138;43.138;24.702;2022-12-24T02:41:17;18.67;;;10.93;;
70576;SDS011;58138;43.138;24.702;2022-12-24T02:43:47;16.83;;;9.63;;
70576;SDS011;58138;43.138;24.702;2022-12-24T02:46:32;15.77;;;10.48;;
70576;SDS011;58138;43.138;24.702;2022-12-24T02:48:58;13.57;;;7.88;;
70576;SDS011;58138;43.138;24.702;2022-12-24T02:51:23;7.00;;;3.95;;
70576;SDS011;58138;43.138;24.702;2022-12-24T02:53:49;9.55;;;5.15;;
70576;SDS011;58138;43.138;24.702;2022-12-24T02:56:22;15.23;;;8.77;;
70576;SDS011;58138;43.138;24.702;2022-12-24T02:59:02;20.38;;;10.20;;
70576;SDS011;58138;43.138;24.702;2022-12-24T03:13:05;24.33;;;13.60;;
70576;SDS011;58138;43.138;24.702;2022-12-24T03:15:34;20.42;;;13.93;;
70576;SDS011;58138;43.138;24.702;2022-12-24T03:18:01;27.13;;;14.38;;
70576;SDS011;58138;43.138;24.702;2022-12-24T03:20:30;23.38;;;15.30;;
70576;SDS011;58138;43.138;24.702;2022-12-24T03:23:01;24.27;;;13.90;;
70576;SDS011;58138;43.138;24.702;2022-12-24T03:25:27;24.45;;;15.00;;
70576;SDS011;58138;43.138;24.702;2022-12-24T03:27:53;22.20;;;13.30;;
70576;SDS011;58138;43.138;24.702;2022-12-24T03:30:20;25.38;;;13.80;;
70576;SDS011;58138;43.138;24.702;2022-12-24T03:32:46;16.75;;;10.93;;
70576;SDS011;58138;43.138;24.702;2022-12-24T03:35:12;18.25;;;11.20;;
70576;SDS011;58138;43.138;24.702;2022-12-24T03:37:37;24.27;;;15.82;;
70576;SDS011;58138;43.138;24.702;2022-12-24T03:40:03;37.00;;;23.02;;
70576;SDS011;58138;43.138;24.702;2022-12-24T03:42:30;33.65;;;20.50;;
70576;SDS011;58138;43.138;24.702;2022-12-24T03:44:55;38.90;;;24.77;;
70576;SDS011;58138;43.138;24.702;2022-12-24T03:47:21;32.72;;;21.00;;
70576;SDS011;58138;43.138;24.702;2022-12-24T03:49:46;39.88;;;22.85;;
70576;SDS011;58138;43.138;24.702;2022-12-24T03:52:12;19.45;;;10.77;;
70576;SDS011;58138;43.138;24.702;2022-12-24T03:54:37;29.52;;;18.80;;
70576;SDS011;58138;43.138;24.702;2022-12-24T03:57:03;23.48;;;13.30;;
70576;SDS011;58138;43.138;24.702;2022-12-24T03:59:29;24.13;;;14.57;;
70576;SDS011;58138;43.138;24.702;2022-12-24T04:01:54;29.17;;;18.23;;
70576;SDS011;58138;43.138;24.702;2022-12-24T04:04:20;13.02;;;6.43;;
70576;SDS011;58138;43.138;24.702;2022-12-24T04:06:45;19.70;;;11.40;;
70576;SDS011;58138;43.138;24.702;2022-12-24T04:09:10;19.13;;;12.10;;
70576;SDS011;58138;43.138;24.702;2022-12-24T04:11:36;13.98;;;8.05;;
70576;SDS011;58138;43.138;24.702;2022-12-24T04:14:01;23.35;;;11.85;;
70576;SDS011;58138;43.138;24.702;2022-12-24T04:16:27;10.77;;;6.00;;
70576;SDS011;58138;43.138;24.702;2022-12-24T04:18:52;17.55;;;10.20;;
70576;SDS011;58138;43.138;24.702;2022-12-24T04:21:18;20.85;;;12.35;;
70576;SDS011;58138;43.138;24.702;2022-12-24T04:23:43;37.30;;;22.40;;
70576;SDS011;58138;43.138;24.702;2022-12-24T04:26:10;46.22;;;26.02;;
70576;SDS011;58138;43.138;24.702;2022-12-24T04:28:37;45.28;;;27.63;;
70576;SDS011;58138;43.138;24.702;2022-12-24T04:31:04;41.03;;;24.75;;
70576;SDS011;58138;43.138;24.702;2022-12-24T04:33:32;110.55;;;54.30;;
70576;SDS011;58138;43.138;24.702;2022-12-24T04:35:58;54.08;;;32.75;;
70576;SDS011;58138;43.138;24.702;2022-12-24T04:38:25;53.05;;;30.77;;
70576;SDS011;58138;43.138;24.702;2022-12-24T04:41:00;50.20;;;32.38;;
70576;SDS011;58138;43.138;24.702;2022-12-24T04:43:27;57.90;;;36.05;;
70576;SDS011;58138;43.138;24.702;2022-12-24T04:45:53;52.22;;;31.55;;
70576;SDS011;58138;43.138;24.702;2022-12-24T04:48:18;63.90;;;37.17;;
70576;SDS011;58138;43.138;24.702;2022-12-24T04:50:44;48.47;;;30.27;;
70576;SDS011;58138;43.138;24.702;2022-12-24T04:53:09;39.08;;;21.67;;
70576;SDS011;58138;43.138;24.702;2022-12-24T04:55:35;17.52;;;9.68;;
70576;SDS011;58138;43.138;24.702;2022-12-24T04:58:00;17.73;;;6.45;;
70576;SDS011;58138;43.138;24.702;2022-12-24T05:00:26;20.23;;;7.78;;
70576;SDS011;58138;43.138;24.702;2022-12-24T05:02:51;7.63;;;4.38;;
70576;SDS011;58138;43.138;24.702;2022-12-24T05:05:17;17.33;;;9.35;;
70576;SDS011;58138;43.138;24.702;2022-12-24T05:07:42;17.33;;;9.90;;
70576;SDS011;58138;43.138;24.702;2022-12-24T05:10:08;32.40;;;17.52;;
70576;SDS011;58138;43.138;24.702;2022-12-24T05:12:35;28.80;;;15.73;;
70576;SDS011;58138;43.138;24.702;2022-12-24T05:15:00;23.92;;;14.30;;
70576;SDS011;58138;43.138;24.702;2022-12-24T05:17:26;31.52;;;18.92;;
70576;SDS011;58138;43.138;24.702;2022-12-24T05:19:51;35.53;;;20.85;;
70576;SDS011;58138;43.138;24.702;2022-12-24T05:22:17;21.52;;;9.05;;
70576;SDS011;58138;43.138;24.702;2022-12-24T05:25:01;13.70;;;8.35;;
70576;SDS011;58138;43.138;24.702;2022-12-24T05:27:44;12.88;;;7.57;;
70576;SDS011;58138;43.138;24.702;2022-12-24T05:30:11;14.68;;;8.77;;
70576;SDS011;58138;43.138;24.702;2022-12-24T05:32:36;13.07;;;7.35;;
70576;SDS011;58138;43.138;24.702;2022-12-24T05:35:02;8.07;;;5.32;;
70576;SDS011;58138;43.138;24.702;2022-12-24T05:37:27;6.18;;;3.40;;
70576;SDS011;58138;43.138;24.702;2022-12-24T05:39:53;6.32;;;4.00;;
70576;SDS011;58138;43.138;24.702;2022-12-24T05:42:18;9.13;;;5.53;;
70576;SDS011;58138;43.138;24.702;2022-12-24T05:44:43;13.05;;;4.53;;
70576;SDS011;58138;43.138;24.702;2022-12-24T05:47:09;10.05;;;4.75;;
70576;SDS011;58138;43.138;24.702;2022-12-24T05:49:34;15.00;;;6.63;;
70576;SDS011;58138;43.138;24.702;2022-12-24T05:52:00;14.50;;;7.63;;
70576;SDS011;58138;43.138;24.702;2022-12-24T05:54:25;12.07;;;6.72;;
70576;SDS011;58138;43.138;24.702;2022-12-24T05:56:50;17.80;;;10.15;;
70576;SDS011;58138;43.138;24.702;2022-12-24T05:59:16;18.48;;;11.02;;
70576;SDS011;58138;43.138;24.702;2022-12-24T06:01:42;29.63;;;13.18;;
70576;SDS011;58138;43.138;24.702;2022-12-24T06:04:12;22.83;;;11.95;;
70576;SDS011;58138;43.138;24.702;2022-12-24T06:06:38;20.33;;;10.70;;
70576;SDS011;58138;43.138;24.702;2022-12-24T06:09:03;21.63;;;8.27;;
70576;SDS011;58138;43.138;24.702;2022-12-24T06:11:29;19.20;;;9.73;;
70576;SDS011;58138;43.138;24.702;2022-12-24T06:13:54;10.48;;;6.25;;
70576;SDS011;58138;43.138;24.702;2022-12-24T06:16:21;22.70;;;11.48;;
70576;SDS011;58138;43.138;24.702;2022-12-24T06:18:47;21.17;;;12.55;;
70576;SDS011;58138;43.138;24.702;2022-12-24T06:21:13;22.63;;;12.27;;
70576;SDS011;58138;43.138;24.702;2022-12-24T06:23:40;15.57;;;9.75;;
70576;SDS011;58138;43.138;24.702;2022-12-24T06:26:06;21.67;;;6.78;;
70576;SDS011;58138;43.138;24.702;2022-12-24T06:28:34;14.82;;;8.23;;
70576;SDS011;58138;43.138;24.702;2022-12-24T06:31:01;12.63;;;7.50;;
70576;SDS011;58138;43.138;24.702;2022-12-24T06:33:27;14.85;;;7.53;;
70576;SDS011;58138;43.138;24.702;2022-12-24T06:35:53;20.67;;;12.02;;
70576;SDS011;58138;43.138;24.702;2022-12-24T06:38:19;21.48;;;11.45;;
70576;SDS011;58138;43.138;24.702;2022-12-24T06:40:45;18.85;;;9.10;;
70576;SDS011;58138;43.138;24.702;2022-12-24T06:43:11;22.63;;;10.07;;
70576;SDS011;58138;43.138;24.702;2022-12-24T06:45:43;19.85;;;10.75;;
70576;SDS011;58138;43.138;24.702;2022-12-24T06:48:09;11.68;;;6.95;;
70576;SDS011;58138;43.138;24.702;2022-12-24T06:50:34;12.65;;;6.28;;
70576;SDS011;58138;43.138;24.702;2022-12-24T06:53:00;9.57;;;5.88;;
70576;SDS011;58138;43.138;24.702;2022-12-24T06:55:25;13.73;;;7.60;;
70576;SDS011;58138;43.138;24.702;2022-12-24T06:57:51;7.43;;;3.70;;
70576;SDS011;58138;43.138;24.702;2022-12-24T07:00:16;17.83;;;9.40;;
70576;SDS011;58138;43.138;24.702;2022-12-24T07:02:42;17.15;;;8.50;;
70576;SDS011;58138;43.138;24.702;2022-12-24T07:05:09;14.70;;;8.23;;
70576;SDS011;58138;43.138;24.702;2022-12-24T07:07:39;22.55;;;14.13;;
70576;SDS011;58138;43.138;24.702;2022-12-24T07:10:06;11.55;;;6.60;;
70576;SDS011;58138;43.138;24.702;2022-12-24T07:12:32;17.73;;;9.02;;
70576;SDS011;58138;43.138;24.702;2022-12-24T07:14:58;15.85;;;8.02;;
70576;SDS011;58138;43.138;24.702;2022-12-24T07:17:23;15.13;;;6.93;;
70576;SDS011;58138;43.138;24.702;2022-12-24T07:19:49;18.30;;;10.10;;
70576;SDS011;58138;43.138;24.702;2022-12-24T07:22:14;18.98;;;9.43;;
70576;SDS011;58138;43.138;24.702;2022-12-24T07:24:40;21.58;;;12.77;;
70576;SDS011;58138;43.138;24.702;2022-12-24T07:27:05;20.20;;;11.52;;
70576;SDS011;58138;43.138;24.702;2022-12-24T07:29:31;18.33;;;10.40;;
70576;SDS011;58138;43.138;24.702;2022-12-24T07:31:56;17.80;;;10.18;;
70576;SDS011;58138;43.138;24.702;2022-12-24T07:34:21;19.02;;;11.63;;
70576;SDS011;58138;43.138;24.702;2022-12-24T07:36:47;23.77;;;13.07;;
70576;SDS011;58138;43.138;24.702;2022-12-24T07:39:12;25.55;;;17.35;;
70576;SDS011;58138;43.138;24.702;2022-12-24T07:41:38;23.55;;;13.38;;
70576;SDS011;58138;43.138;24.702;2022-12-24T07:44:03;23.70;;;13.20;;
70576;SDS011;58138;43.138;24.702;2022-12-24T07:46:29;20.42;;;11.27;;
70576;SDS011;58138;43.138;24.702;2022-12-24T07:48:54;18.75;;;11.70;;
70576;SDS011;58138;43.138;24.702;2022-12-24T07:51:20;16.50;;;10.95;;
70576;SDS011;58138;43.138;24.702;2022-12-24T07:53:45;16.83;;;9.63;;
70576;SDS011;58138;43.138;24.702;2022-12-24T07:56:15;17.70;;;10.27;;
70576;SDS011;58138;43.138;24.702;2022-12-24T07:58:41;18.13;;;10.00;;
70576;SDS011;58138;43.138;24.702;2022-12-24T08:01:06;19.63;;;11.65;;
70576;SDS011;58138;43.138;24.702;2022-12-24T08:03:32;21.90;;;12.13;;
70576;SDS011;58138;43.138;24.702;2022-12-24T08:05:58;21.27;;;11.63;;
70576;SDS011;58138;43.138;24.702;2022-12-24T08:08:23;23.95;;;12.60;;
70576;SDS011;58138;43.138;24.702;2022-12-24T08:10:49;24.65;;;14.77;;
70576;SDS011;58138;43.138;24.702;2022-12-24T08:13:15;16.52;;;9.00;;
70576;SDS011;58138;43.138;24.702;2022-12-24T08:15:41;21.60;;;13.50;;
70576;SDS011;58138;43.138;24.702;2022-12-24T08:18:07;24.92;;;14.88;;
70576;SDS011;58138;43.138;24.702;2022-12-24T08:20:33;15.20;;;9.43;;
70576;SDS011;58138;43.138;24.702;2022-12-24T08:22:58;19.25;;;11.65;;
70576;SDS011;58138;43.138;24.702;2022-12-24T08:25:24;25.42;;;12.30;;
70576;SDS011;58138;43.138;24.702;2022-12-24T08:27:49;15.13;;;10.63;;
70576;SDS011;58138;43.138;24.702;2022-12-24T08:30:15;14.40;;;9.02;;
70576;SDS011;58138;43.138;24.702;2022-12-24T08:32:40;15.02;;;9.13;;
70576;SDS011;58138;43.138;24.702;2022-12-24T08:35:06;15.60;;;8.52;;
70576;SDS011;58138;43.138;24.702;2022-12-24T08:37:31;15.27;;;9.35;;
70576;SDS011;58138;43.138;24.702;2022-12-24T08:39:57;15.63;;;8.23;;
70576;SDS011;58138;43.138;24.702;2022-12-24T08:42:22;22.13;;;10.85;;
70576;SDS011;58138;43.138;24.702;2022-12-24T08:44:48;21.27;;;12.43;;
70576;SDS011;58138;43.138;24.702;2022-12-24T08:47:13;24.67;;;12.77;;
70576;SDS011;58138;43.138;24.702;2022-12-24T08:49:39;22.83;;;12.20;;
70576;SDS011;58138;43.138;24.702;2022-12-24T08:52:04;24.13;;;11.95;;
70576;SDS011;58138;43.138;24.702;2022-12-24T08:54:30;22.00;;;12.50;;
70576;SDS011;58138;43.138;24.702;2022-12-24T08:56:55;21.58;;;11.77;;
70576;SDS011;58138;43.138;24.702;2022-12-24T08:59:21;22.48;;;12.65;;
70576;SDS011;58138;43.138;24.702;2022-12-24T09:01:46;26.27;;;12.00;;
70576;SDS011;58138;43.138;24.702;2022-12-24T09:04:12;24.85;;;12.55;;
70576;SDS011;58138;43.138;24.702;2022-12-24T09:06:37;25.48;;;12.82;;
70576;SDS011;58138;43.138;24.702;2022-12-24T09:09:03;27.17;;;13.55;;
70576;SDS011;58138;43.138;24.702;2022-12-24T09:11:29;32.08;;;14.00;;
70576;SDS011;58138;43.138;24.702;2022-12-24T09:13:55;26.05;;;14.38;;
70576;SDS011;58138;43.138;24.702;2022-12-24T09:16:20;34.47;;;18.50;;
70576;SDS011;58138;43.138;24.702;2022-12-24T09:18:46;47.47;;;25.58;;
70576;SDS011;58138;43.138;24.702;2022-12-24T09:21:13;36.35;;;20.13;;
70576;SDS011;58138;43.138;24.702;2022-12-24T09:23:40;24.80;;;13.73;;
70576;SDS011;58138;43.138;24.702;2022-12-24T09:26:20;27.02;;;15.90;;
70576;SDS011;58138;43.138;24.702;2022-12-24T09:28:48;28.17;;;16.33;;
70576;SDS011;58138;43.138;24.702;2022-12-24T09:31:14;23.13;;;14.10;;
70576;SDS011;58138;43.138;24.702;2022-12-24T09:33:41;26.42;;;13.10;;
70576;SDS011;58138;43.138;24.702;2022-12-24T09:36:07;21.48;;;12.48;;
70576;SDS011;58138;43.138;24.702;2022-12-24T09:38:33;39.78;;;25.17;;
70576;SDS011;58138;43.138;24.702;2022-12-24T09:41:00;28.58;;;19.00;;
70576;SDS011;58138;43.138;24.702;2022-12-24T09:43:26;26.55;;;15.57;;
70576;SDS011;58138;43.138;24.702;2022-12-24T09:48:21;23.33;;;13.10;;
70576;SDS011;58138;43.138;24.702;2022-12-24T09:50:57;22.98;;;12.55;;
70576;SDS011;58138;43.138;24.702;2022-12-24T09:53:35;23.52;;;13.88;;
70576;SDS011;58138;43.138;24.702;2022-12-24T09:56:03;32.13;;;16.83;;
70576;SDS011;58138;43.138;24.702;2022-12-24T09:58:34;33.35;;;18.83;;
70576;SDS011;58138;43.138;24.702;2022-12-24T10:01:03;33.60;;;19.27;;
70576;SDS011;58138;43.138;24.702;2022-12-24T10:03:28;34.45;;;20.27;;
70576;SDS011;58138;43.138;24.702;2022-12-24T10:08:28;39.50;;;22.98;;
70576;SDS011;58138;43.138;24.702;2022-12-24T10:10:59;43.88;;;22.73;;
70576;SDS011;58138;43.138;24.702;2022-12-24T10:13:53;67.82;;;30.73;;
70576;SDS011;58138;43.138;24.702;2022-12-24T10:24:24;75.60;;;43.10;;
70576;SDS011;58138;43.138;24.702;2022-12-24T10:26:54;74.60;;;43.05;;
70576;SDS011;58138;43.138;24.702;2022-12-24T10:29:24;76.53;;;50.05;;
70576;SDS011;58138;43.138;24.702;2022-12-24T10:34:35;83.18;;;51.10;;
70576;SDS011;58138;43.138;24.702;2022-12-24T10:37:05;93.88;;;58.92;;
70576;SDS011;58138;43.138;24.702;2022-12-24T10:39:31;72.97;;;47.15;;
70576;SDS011;58138;43.138;24.702;2022-12-24T10:41:57;78.68;;;52.03;;
70576;SDS011;58138;43.138;24.702;2022-12-24T10:44:25;87.30;;;54.47;;
70576;SDS011;58138;43.138;24.702;2022-12-24T10:46:52;90.47;;;57.13;;
70576;SDS011;58138;43.138;24.702;2022-12-24T10:49:18;77.03;;;51.25;;
70576;SDS011;58138;43.138;24.702;2022-12-24T10:52:05;93.55;;;56.42;;
70576;SDS011;58138;43.138;24.702;2022-12-24T10:54:31;105.13;;;71.35;;
70576;SDS011;58138;43.138;24.702;2022-12-24T10:57:03;84.68;;;53.78;;
70576;SDS011;58138;43.138;24.702;2022-12-24T10:59:42;117.70;;;74.70;;
70576;SDS011;58138;43.138;24.702;2022-12-24T11:04:53;161.05;;;102.47;;
70576;SDS011;58138;43.138;24.702;2022-12-24T11:07:20;192.00;;;116.07;;
70576;SDS011;58138;43.138;24.702;2022-12-24T11:09:59;103.95;;;65.70;;
70576;SDS011;58138;43.138;24.702;2022-12-24T11:12:47;84.15;;;53.53;;
70576;SDS011;58138;43.138;24.702;2022-12-24T11:15:15;44.53;;;30.70;;
70576;SDS011;58138;43.138;24.702;2022-12-24T11:17:53;35.80;;;23.17;;
70576;SDS011;58138;43.138;24.702;2022-12-24T11:20:20;39.08;;;28.05;;
70576;SDS011;58138;43.138;24.702;2022-12-24T11:22:50;29.23;;;19.05;;
70576;SDS011;58138;43.138;24.702;2022-12-24T11:25:20;29.45;;;16.83;;
70576;SDS011;58138;43.138;24.702;2022-12-24T11:27:48;25.55;;;16.38;;
70576;SDS011;58138;43.138;24.702;2022-12-24T11:32:41;27.85;;;19.13;;
70576;SDS011;58138;43.138;24.702;2022-12-24T11:35:18;25.38;;;16.33;;
70576;SDS011;58138;43.138;24.702;2022-12-24T11:37:46;27.48;;;17.60;;
70576;SDS011;58138;43.138;24.702;2022-12-24T11:40:20;28.70;;;16.25;;
70576;SDS011;58138;43.138;24.702;2022-12-24T11:42:46;23.05;;;13.80;;
70576;SDS011;58138;43.138;24.702;2022-12-24T11:45:21;25.60;;;15.88;;
70576;SDS011;58138;43.138;24.702;2022-12-24T11:47:49;30.33;;;18.05;;
70576;SDS011;58138;43.138;24.702;2022-12-24T11:55:38;28.02;;;18.83;;
70576;SDS011;58138;43.138;24.702;2022-12-24T11:58:17;36.50;;;24.92;;
70576;SDS011;58138;43.138;24.702;2022-12-24T12:00:44;34.90;;;24.95;;
70576;SDS011;58138;43.138;24.702;2022-12-24T12:03:22;35.72;;;24.73;;
70576;SDS011;58138;43.138;24.702;2022-12-24T12:05:54;39.17;;;27.10;;
70576;SDS011;58138;43.138;24.702;2022-12-24T12:08:19;37.38;;;26.40;;
70576;SDS011;58138;43.138;24.702;2022-12-24T12:10:47;29.90;;;20.45;;
70576;SDS011;58138;43.138;24.702;2022-12-24T12:13:15;39.70;;;27.08;;
70576;SDS011;58138;43.138;24.702;2022-12-24T12:15:45;55.53;;;32.75;;
70576;SDS011;58138;43.138;24.702;2022-12-24T12:18:14;46.78;;;31.30;;
70576;SDS011;58138;43.138;24.702;2022-12-24T12:20:42;50.30;;;34.20;;
70576;SDS011;58138;43.138;24.702;2022-12-24T12:23:20;52.72;;;38.53;;
70576;SDS011;58138;43.138;24.702;2022-12-24T12:28:56;59.75;;;42.40;;
70576;SDS011;58138;43.138;24.702;2022-12-24T12:31:26;88.35;;;57.65;;
70576;SDS011;58138;43.138;24.702;2022-12-24T12:36:25;94.32;;;62.55;;
70576;SDS011;58138;43.138;24.702;2022-12-24T12:38:58;67.43;;;48.67;;
70576;SDS011;58138;43.138;24.702;2022-12-24T12:51:21;75.05;;;53.88;;
70576;SDS011;58138;43.138;24.702;2022-12-24T12:56:53;86.10;;;56.92;;
70576;SDS011;58138;43.138;24.702;2022-12-24T12:59:19;80.63;;;55.08;;
70576;SDS011;58138;43.138;24.702;2022-12-24T13:02:14;82.70;;;57.05;;
70576;SDS011;58138;43.138;24.702;2022-12-24T13:07:32;111.32;;;74.70;;
70576;SDS011;58138;43.138;24.702;2022-12-24T13:10:17;114.70;;;75.30;;
70576;SDS011;58138;43.138;24.702;2022-12-24T13:12:50;113.97;;;76.50;;
70576;SDS011;58138;43.138;24.702;2022-12-24T13:18:24;122.03;;;84.30;;
70576;SDS011;58138;43.138;24.702;2022-12-24T13:20:55;119.20;;;79.63;;
70576;SDS011;58138;43.138;24.702;2022-12-24T13:23:21;144.25;;;86.53;;
70576;SDS011;58138;43.138;24.702;2022-12-24T13:25:49;123.32;;;78.28;;
70576;SDS011;58138;43.138;24.702;2022-12-24T13:28:17;133.50;;;82.78;;
70576;SDS011;58138;43.138;24.702;2022-12-24T13:33:49;86.68;;;47.95;;
70576;SDS011;58138;43.138;24.702;2022-12-24T13:36:19;60.75;;;37.35;;
70576;SDS011;58138;43.138;24.702;2022-12-24T13:38:48;62.80;;;39.15;;
70576;SDS011;58138;43.138;24.702;2022-12-24T13:52:26;239.23;;;82.05;;
70576;SDS011;58138;43.138;24.702;2022-12-24T13:57:32;90.65;;;60.25;;
70576;SDS011;58138;43.138;24.702;2022-12-24T14:00:17;93.97;;;60.97;;
70576;SDS011;58138;43.138;24.702;2022-12-24T14:02:56;75.55;;;51.95;;
70576;SDS011;58138;43.138;24.702;2022-12-24T14:05:35;92.43;;;59.08;;
70576;SDS011;58138;43.138;24.702;2022-12-24T14:11:08;81.60;;;56.40;;
70576;SDS011;58138;43.138;24.702;2022-12-24T14:16:02;60.05;;;42.40;;
70576;SDS011;58138;43.138;24.702;2022-12-24T14:18:48;72.75;;;48.97;;
70576;SDS011;58138;43.138;24.702;2022-12-24T14:21:36;63.80;;;41.50;;
70576;SDS011;58138;43.138;24.702;2022-12-24T14:26:43;40.67;;;27.17;;
70576;SDS011;58138;43.138;24.702;2022-12-24T14:29:20;44.17;;;27.13;;
70576;SDS011;58138;43.138;24.702;2022-12-24T14:31:50;54.03;;;33.50;;
70576;SDS011;58138;43.138;24.702;2022-12-24T14:34:16;86.68;;;48.78;;
70576;SDS011;58138;43.138;24.702;2022-12-24T14:36:42;71.80;;;39.35;;
70576;SDS011;58138;43.138;24.702;2022-12-24T14:39:09;70.50;;;37.38;;
70576;SDS011;58138;43.138;24.702;2022-12-24T14:41:45;33.20;;;21.45;;
70576;SDS011;58138;43.138;24.702;2022-12-24T15:02:33;42.45;;;28.40;;
70576;SDS011;58138;43.138;24.702;2022-12-24T15:05:06;18.80;;;12.60;;
70576;SDS011;58138;43.138;24.702;2022-12-24T15:07:51;19.17;;;13.57;;
70576;SDS011;58138;43.138;24.702;2022-12-24T15:10:37;21.20;;;13.45;;
70576;SDS011;58138;43.138;24.702;2022-12-24T15:13:06;24.95;;;16.67;;
70576;SDS011;58138;43.138;24.702;2022-12-24T15:15:36;41.63;;;26.63;;
70576;SDS011;58138;43.138;24.702;2022-12-24T15:18:02;60.72;;;42.75;;
70576;SDS011;58138;43.138;24.702;2022-12-24T15:20:28;61.20;;;39.53;;
70576;SDS011;58138;43.138;24.702;2022-12-24T15:22:55;40.70;;;25.70;;
70576;SDS011;58138;43.138;24.702;2022-12-24T15:25:26;30.35;;;19.88;;
70576;SDS011;58138;43.138;24.702;2022-12-24T15:27:54;38.40;;;24.52;;
70576;SDS011;58138;43.138;24.702;2022-12-24T15:30:20;41.08;;;26.42;;
70576;SDS011;58138;43.138;24.702;2022-12-24T15:32:54;37.35;;;25.08;;
70576;SDS011;58138;43.138;24.702;2022-12-24T15:40:59;10.68;;;7.43;;
70576;SDS011;58138;43.138;24.702;2022-12-24T15:43:27;22.85;;;15.80;;
70576;SDS011;58138;43.138;24.702;2022-12-24T15:45:53;14.23;;;10.52;;
70576;SDS011;58138;43.138;24.702;2022-12-24T15:48:20;14.48;;;10.40;;
70576;SDS011;58138;43.138;24.702;2022-12-24T15:50:55;17.02;;;10.88;;
70576;SDS011;58138;43.138;24.702;2022-12-24T15:53:36;14.63;;;10.98;;
70576;SDS011;58138;43.138;24.702;2022-12-24T15:56:11;9.52;;;6.72;;
70576;SDS011;58138;43.138;24.702;2022-12-24T15:58:39;16.83;;;11.20;;
70576;SDS011;58138;43.138;24.702;2022-12-24T16:03:38;24.33;;;14.07;;
70576;SDS011;58138;43.138;24.702;2022-12-24T16:06:13;21.60;;;12.15;;
70576;SDS011;58138;43.138;24.702;2022-12-24T16:08:42;15.75;;;11.85;;
70576;SDS011;58138;43.138;24.702;2022-12-24T16:13:56;29.13;;;18.50;;
70576;SDS011;58138;43.138;24.702;2022-12-24T16:18:59;21.50;;;11.88;;
70576;SDS011;58138;43.138;24.702;2022-12-24T16:21:33;17.77;;;12.43;;
70576;SDS011;58138;43.138;24.702;2022-12-24T16:24:05;23.08;;;14.63;;
70576;SDS011;58138;43.138;24.702;2022-12-24T16:26:34;11.23;;;7.10;;
70576;SDS011;58138;43.138;24.702;2022-12-24T16:29:02;16.35;;;9.38;;
70576;SDS011;58138;43.138;24.702;2022-12-24T16:31:31;15.27;;;9.50;;
70576;SDS011;58138;43.138;24.702;2022-12-24T16:33:59;11.02;;;6.68;;